sensor_id;sensor_type;location;lat;lon;timestamp;temperature;humidity
5972;DHT22;3012;49.944;8.454;2023-11-21T00:01:32;9.70;99.90
5972;DHT22;3012;49.944;8.454;2023-11-21T00:04:02;9.20;99.90
5972;DHT22;3012;49.944;8.454;2023-11-21T00:06:30;9.70;99.90
5972;DHT22;3012;49.944;8.454;2023-11-21T00:08:58;9.20;99.90
5972;DHT22;3012;49.944;8.454;2023-11-21T00:11:27;9.70;99.90
5972;DHT22;3012;49.944;8.454;2023-11-21T00:13:55;9.10;99.90
5972;DHT22;3012;49.944;8.454;2023-11-21T00:16:24;9.10;99.90
5972;DHT22;3012;49.944;8.454;2023-11-21T00:18:52;9.10;99.90
5972;DHT22;3012;49.944;8.454;2023-11-21T00:21:22;9.50;99.90
5972;DHT22;3012;49.944;8.454;2023-11-21T00:23:50;10.10;99.90
5972;DHT22;3012;49.944;8.454;2023-11-21T00:26:18;9.00;99.90
5972;DHT22;3012;49.944;8.454;2023-11-21T00:28:46;9.30;99.90
5972;DHT22;3012;49.944;8.454;2023-11-21T00:31:14;9.50;99.90
5972;DHT22;3012;49.944;8.454;2023-11-21T00:33:42;9.70;99.90
5972;DHT22;3012;49.944;8.454;2023-11-21T00:36:11;10.10;99.90
5972;DHT22;3012;49.944;8.454;2023-11-21T00:38:40;9.20;99.90
5972;DHT22;3012;49.944;8.454;2023-11-21T00:41:08;8.90;99.90
5972;DHT22;3012;49.944;8.454;2023-11-21T00:43:36;9.20;99.90
5972;DHT22;3012;49.944;8.454;2023-11-21T00:46:05;9.60;99.90
5972;DHT22;3012;49.944;8.454;2023-11-21T00:48:34;9.60;99.90
5972;DHT22;3012;49.944;8.454;2023-11-21T00:51:02;9.30;99.90
5972;DHT22;3012;49.944;8.454;2023-11-21T00:53:31;9.40;99.90
5972;DHT22;3012;49.944;8.454;2023-11-21T00:56:00;9.60;99.90
5972;DHT22;3012;49.944;8.454;2023-11-21T00:58:29;9.80;99.90
5972;DHT22;3012;49.944;8.454;2023-11-21T01:00:57;9.20;99.90
5972;DHT22;3012;49.944;8.454;2023-11-21T01:03:25;9.90;99.90
5972;DHT22;3012;49.944;8.454;2023-11-21T01:05:53;9.10;99.90
5972;DHT22;3012;49.944;8.454;2023-11-21T01:08:21;9.60;99.90
5972;DHT22;3012;49.944;8.454;2023-11-21T01:10:50;9.90;99.90
5972;DHT22;3012;49.944;8.454;2023-11-21T01:13:20;9.10;99.90
5972;DHT22;3012;49.944;8.454;2023-11-21T01:15:48;9.10;99.90
5972;DHT22;3012;49.944;8.454;2023-11-21T01:18:16;9.60;99.90
5972;DHT22;3012;49.944;8.454;2023-11-21T01:20:44;9.70;99.90
5972;DHT22;3012;49.944;8.454;2023-11-21T01:23:14;9.30;99.90
5972;DHT22;3012;49.944;8.454;2023-11-21T01:25:42;8.90;99.90
5972;DHT22;3012;49.944;8.454;2023-11-21T01:28:10;9.90;99.90
5972;DHT22;3012;49.944;8.454;2023-11-21T01:30:40;9.80;99.90
5972;DHT22;3012;49.944;8.454;2023-11-21T01:33:07;9.60;99.90
5972;DHT22;3012;49.944;8.454;2023-11-21T01:35:35;9.00;99.90
5972;DHT22;3012;49.944;8.454;2023-11-21T01:38:03;9.40;99.90
5972;DHT22;3012;49.944;8.454;2023-11-21T01:40:31;9.70;99.90
5972;DHT22;3012;49.944;8.454;2023-11-21T01:42:59;9.30;99.90
5972;DHT22;3012;49.944;8.454;2023-11-21T01:45:29;9.70;99.90
5972;DHT22;3012;49.944;8.454;2023-11-21T01:47:59;9.10;99.90
5972;DHT22;3012;49.944;8.454;2023-11-21T01:50:27;9.10;99.90
5972;DHT22;3012;49.944;8.454;2023-11-21T01:52:56;9.30;99.90
5972;DHT22;3012;49.944;8.454;2023-11-21T01:55:24;9.60;99.90
5972;DHT22;3012;49.944;8.454;2023-11-21T01:57:55;9.20;99.90
5972;DHT22;3012;49.944;8.454;2023-11-21T02:00:24;9.60;99.90
5972;DHT22;3012;49.944;8.454;2023-11-21T02:02:52;9.30;99.90
5972;DHT22;3012;49.944;8.454;2023-11-21T02:05:22;9.50;99.90
5972;DHT22;3012;49.944;8.454;2023-11-21T02:07:50;9.20;99.90
5972;DHT22;3012;49.944;8.454;2023-11-21T02:10:19;10.00;99.90
5972;DHT22;3012;49.944;8.454;2023-11-21T02:12:50;9.20;99.90
5972;DHT22;3012;49.944;8.454;2023-11-21T02:15:19;9.70;99.90
5972;DHT22;3012;49.944;8.454;2023-11-21T02:17:48;9.30;99.90
5972;DHT22;3012;49.944;8.454;2023-11-21T02:20:21;9.30;99.90
5972;DHT22;3012;49.944;8.454;2023-11-21T02:22:54;9.70;99.90
5972;DHT22;3012;49.944;8.454;2023-11-21T02:25:26;9.90;99.90
5972;DHT22;3012;49.944;8.454;2023-11-21T02:27:56;9.60;99.90
5972;DHT22;3012;49.944;8.454;2023-11-21T02:30:24;9.90;99.90
5972;DHT22;3012;49.944;8.454;2023-11-21T02:32:54;10.10;99.90
5972;DHT22;3012;49.944;8.454;2023-11-21T02:35:24;9.40;99.90
5972;DHT22;3012;49.944;8.454;2023-11-21T02:37:55;9.30;99.90
5972;DHT22;3012;49.944;8.454;2023-11-21T02:40:23;9.50;99.90
5972;DHT22;3012;49.944;8.454;2023-11-21T02:42:53;10.20;99.90
5972;DHT22;3012;49.944;8.454;2023-11-21T02:45:21;9.90;99.90
5972;DHT22;3012;49.944;8.454;2023-11-21T02:47:50;10.10;99.90
5972;DHT22;3012;49.944;8.454;2023-11-21T02:50:20;9.60;99.90
5972;DHT22;3012;49.944;8.454;2023-11-21T02:52:49;9.60;99.90
5972;DHT22;3012;49.944;8.454;2023-11-21T02:55:19;10.20;99.90
5972;DHT22;3012;49.944;8.454;2023-11-21T02:57:48;9.90;99.90
5972;DHT22;3012;49.944;8.454;2023-11-21T03:00:17;10.00;99.90
5972;DHT22;3012;49.944;8.454;2023-11-21T03:02:45;9.90;99.90
5972;DHT22;3012;49.944;8.454;2023-11-21T03:05:14;9.20;99.90
5972;DHT22;3012;49.944;8.454;2023-11-21T03:07:42;9.20;99.90
5972;DHT22;3012;49.944;8.454;2023-11-21T03:10:10;9.60;99.90
5972;DHT22;3012;49.944;8.454;2023-11-21T03:12:40;9.60;99.90
5972;DHT22;3012;49.944;8.454;2023-11-21T03:15:08;9.60;99.90
5972;DHT22;3012;49.944;8.454;2023-11-21T03:17:37;9.40;99.90
5972;DHT22;3012;49.944;8.454;2023-11-21T03:20:06;9.00;99.90
5972;DHT22;3012;49.944;8.454;2023-11-21T03:22:38;9.90;99.90
5972;DHT22;3012;49.944;8.454;2023-11-21T03:25:07;9.80;99.90
5972;DHT22;3012;49.944;8.454;2023-11-21T03:27:39;9.90;99.90
5972;DHT22;3012;49.944;8.454;2023-11-21T03:30:09;9.10;99.90
5972;DHT22;3012;49.944;8.454;2023-11-21T03:32:37;9.80;99.90
5972;DHT22;3012;49.944;8.454;2023-11-21T03:35:06;10.10;99.90
5972;DHT22;3012;49.944;8.454;2023-11-21T03:37:34;9.50;99.90
5972;DHT22;3012;49.944;8.454;2023-11-21T03:40:03;10.20;99.90
5972;DHT22;3012;49.944;8.454;2023-11-21T03:42:31;9.90;99.90
5972;DHT22;3012;49.944;8.454;2023-11-21T03:45:01;10.20;99.90
5972;DHT22;3012;49.944;8.454;2023-11-21T03:47:30;9.80;99.90
5972;DHT22;3012;49.944;8.454;2023-11-21T03:49:58;9.70;99.90
5972;DHT22;3012;49.944;8.454;2023-11-21T03:52:27;9.40;99.90
5972;DHT22;3012;49.944;8.454;2023-11-21T03:54:55;9.30;99.90
5972;DHT22;3012;49.944;8.454;2023-11-21T03:57:22;10.00;99.90
5972;DHT22;3012;49.944;8.454;2023-11-21T03:59:50;9.70;99.90
5972;DHT22;3012;49.944;8.454;2023-11-21T04:02:20;9.90;99.90
5972;DHT22;3012;49.944;8.454;2023-11-21T04:04:48;9.60;99.90
5972;DHT22;3012;49.944;8.454;2023-11-21T04:07:16;9.40;99.90
5972;DHT22;3012;49.944;8.454;2023-11-21T04:09:44;9.40;99.90
5972;DHT22;3012;49.944;8.454;2023-11-21T04:12:12;9.80;99.90
5972;DHT22;3012;49.944;8.454;2023-11-21T04:14:41;9.90;99.90
5972;DHT22;3012;49.944;8.454;2023-11-21T04:17:09;10.10;99.90
5972;DHT22;3012;49.944;8.454;2023-11-21T04:19:38;9.90;99.90
5972;DHT22;3012;49.944;8.454;2023-11-21T04:22:07;9.10;99.90
5972;DHT22;3012;49.944;8.454;2023-11-21T04:24:35;9.40;99.90
5972;DHT22;3012;49.944;8.454;2023-11-21T04:27:04;9.80;99.90
5972;DHT22;3012;49.944;8.454;2023-11-21T04:29:32;9.90;99.90
5972;DHT22;3012;49.944;8.454;2023-11-21T04:32:00;9.50;99.90
5972;DHT22;3012;49.944;8.454;2023-11-21T04:34:27;9.60;99.90
5972;DHT22;3012;49.944;8.454;2023-11-21T04:36:58;9.40;99.90
5972;DHT22;3012;49.944;8.454;2023-11-21T04:39:27;9.60;99.90
5972;DHT22;3012;49.944;8.454;2023-11-21T04:41:55;10.10;99.90
5972;DHT22;3012;49.944;8.454;2023-11-21T04:44:23;9.50;99.90
5972;DHT22;3012;49.944;8.454;2023-11-21T04:46:52;9.40;99.90
5972;DHT22;3012;49.944;8.454;2023-11-21T04:49:20;9.40;99.90
5972;DHT22;3012;49.944;8.454;2023-11-21T04:51:50;9.90;99.90
5972;DHT22;3012;49.944;8.454;2023-11-21T04:54:21;9.80;99.90
5972;DHT22;3012;49.944;8.454;2023-11-21T04:56:54;9.30;99.90
5972;DHT22;3012;49.944;8.454;2023-11-21T04:59:22;9.90;99.90
5972;DHT22;3012;49.944;8.454;2023-11-21T05:01:51;9.40;99.90
5972;DHT22;3012;49.944;8.454;2023-11-21T05:04:21;9.90;99.90
5972;DHT22;3012;49.944;8.454;2023-11-21T05:06:49;9.80;99.90
5972;DHT22;3012;49.944;8.454;2023-11-21T05:09:17;9.40;99.90
5972;DHT22;3012;49.944;8.454;2023-11-21T05:11:46;10.30;99.90
5972;DHT22;3012;49.944;8.454;2023-11-21T05:14:14;9.80;99.90
5972;DHT22;3012;49.944;8.454;2023-11-21T05:16:43;9.40;99.90
5972;DHT22;3012;49.944;8.454;2023-11-21T05:19:11;9.70;99.90
5972;DHT22;3012;49.944;8.454;2023-11-21T05:21:39;9.80;99.90
5972;DHT22;3012;49.944;8.454;2023-11-21T05:24:07;9.40;99.90
5972;DHT22;3012;49.944;8.454;2023-11-21T05:26:36;9.90;99.90
5972;DHT22;3012;49.944;8.454;2023-11-21T05:29:06;9.70;99.90
5972;DHT22;3012;49.944;8.454;2023-11-21T05:31:35;9.40;99.90
5972;DHT22;3012;49.944;8.454;2023-11-21T05:34:03;10.00;99.90
5972;DHT22;3012;49.944;8.454;2023-11-21T05:36:31;9.70;99.90
5972;DHT22;3012;49.944;8.454;2023-11-21T05:39:00;9.30;99.90
5972;DHT22;3012;49.944;8.454;2023-11-21T05:41:30;9.10;99.90
5972;DHT22;3012;49.944;8.454;2023-11-21T05:43:58;9.90;99.90
5972;DHT22;3012;49.944;8.454;2023-11-21T05:46:27;9.10;99.90
5972;DHT22;3012;49.944;8.454;2023-11-21T05:48:55;9.50;99.90
5972;DHT22;3012;49.944;8.454;2023-11-21T05:51:23;9.60;99.90
5972;DHT22;3012;49.944;8.454;2023-11-21T05:53:51;9.60;99.90
5972;DHT22;3012;49.944;8.454;2023-11-21T05:56:19;9.50;99.90
5972;DHT22;3012;49.944;8.454;2023-11-21T18:58:15;10.20;99.90
5972;DHT22;3012;49.944;8.454;2023-11-21T19:00:43;9.90;99.90
5972;DHT22;3012;49.944;8.454;2023-11-21T19:03:11;10.00;99.90
5972;DHT22;3012;49.944;8.454;2023-11-21T19:05:41;9.70;99.90
5972;DHT22;3012;49.944;8.454;2023-11-21T19:08:09;9.60;99.90
5972;DHT22;3012;49.944;8.454;2023-11-21T19:10:37;10.10;99.90
5972;DHT22;3012;49.944;8.454;2023-11-21T19:13:06;10.10;99.90
5972;DHT22;3012;49.944;8.454;2023-11-21T19:15:35;9.40;99.90
5972;DHT22;3012;49.944;8.454;2023-11-21T19:18:04;10.00;99.90
5972;DHT22;3012;49.944;8.454;2023-11-21T19:20:32;10.20;99.90
5972;DHT22;3012;49.944;8.454;2023-11-21T19:23:00;9.60;99.90
5972;DHT22;3012;49.944;8.454;2023-11-21T19:25:28;9.80;99.90
5972;DHT22;3012;49.944;8.454;2023-11-21T19:27:58;9.90;99.90
5972;DHT22;3012;49.944;8.454;2023-11-21T19:30:26;9.80;99.90
5972;DHT22;3012;49.944;8.454;2023-11-21T19:32:55;9.10;99.90
5972;DHT22;3012;49.944;8.454;2023-11-21T19:35:26;10.00;99.90
5972;DHT22;3012;49.944;8.454;2023-11-21T19:37:54;9.70;99.90
5972;DHT22;3012;49.944;8.454;2023-11-21T19:40:23;9.10;99.90
5972;DHT22;3012;49.944;8.454;2023-11-21T19:42:51;9.40;99.90
5972;DHT22;3012;49.944;8.454;2023-11-21T19:45:19;9.80;99.90
5972;DHT22;3012;49.944;8.454;2023-11-21T19:47:47;9.00;99.90
5972;DHT22;3012;49.944;8.454;2023-11-21T19:50:17;9.20;99.90
5972;DHT22;3012;49.944;8.454;2023-11-21T19:52:45;9.10;99.90
5972;DHT22;3012;49.944;8.454;2023-11-21T19:55:13;8.90;99.90
5972;DHT22;3012;49.944;8.454;2023-11-21T19:57:43;8.90;99.90
5972;DHT22;3012;49.944;8.454;2023-11-21T20:00:11;9.30;99.90
5972;DHT22;3012;49.944;8.454;2023-11-21T20:02:41;9.00;99.90
5972;DHT22;3012;49.944;8.454;2023-11-21T20:05:10;8.90;99.90
5972;DHT22;3012;49.944;8.454;2023-11-21T20:07:43;8.90;99.90
5972;DHT22;3012;49.944;8.454;2023-11-21T20:10:11;8.50;99.90
5972;DHT22;3012;49.944;8.454;2023-11-21T20:12:41;8.90;99.90
5972;DHT22;3012;49.944;8.454;2023-11-21T20:15:18;8.80;99.90
5972;DHT22;3012;49.944;8.454;2023-11-21T20:17:46;9.10;99.90
5972;DHT22;3012;49.944;8.454;2023-11-21T20:20:14;8.80;99.90
5972;DHT22;3012;49.944;8.454;2023-11-21T20:22:44;8.40;99.90
5972;DHT22;3012;49.944;8.454;2023-11-21T20:25:13;8.20;99.90
5972;DHT22;3012;49.944;8.454;2023-11-21T20:27:45;9.30;99.90
5972;DHT22;3012;49.944;8.454;2023-11-21T20:30:14;8.90;99.90
5972;DHT22;3012;49.944;8.454;2023-11-21T20:32:42;9.20;99.90
5972;DHT22;3012;49.944;8.454;2023-11-21T20:35:10;8.40;99.90
5972;DHT22;3012;49.944;8.454;2023-11-21T20:37:39;8.40;99.90
5972;DHT22;3012;49.944;8.454;2023-11-21T20:40:10;8.50;99.90
5972;DHT22;3012;49.944;8.454;2023-11-21T20:42:38;8.40;99.90
5972;DHT22;3012;49.944;8.454;2023-11-21T20:45:10;7.90;99.90
5972;DHT22;3012;49.944;8.454;2023-11-21T20:47:40;8.30;99.90
5972;DHT22;3012;49.944;8.454;2023-11-21T20:50:10;8.20;99.90
5972;DHT22;3012;49.944;8.454;2023-11-21T20:52:38;8.50;99.90
5972;DHT22;3012;49.944;8.454;2023-11-21T20:55:07;7.80;99.90
5972;DHT22;3012;49.944;8.454;2023-11-21T20:57:36;8.10;99.90
5972;DHT22;3012;49.944;8.454;2023-11-21T21:00:07;7.70;99.90
5972;DHT22;3012;49.944;8.454;2023-11-21T21:02:38;8.10;99.90
5972;DHT22;3012;49.944;8.454;2023-11-21T21:05:08;8.20;99.90
5972;DHT22;3012;49.944;8.454;2023-11-21T21:07:37;8.10;99.90
5972;DHT22;3012;49.944;8.454;2023-11-21T21:10:06;7.80;99.90
5972;DHT22;3012;49.944;8.454;2023-11-21T21:12:39;8.20;99.90
5972;DHT22;3012;49.944;8.454;2023-11-21T21:15:08;8.30;99.90
5972;DHT22;3012;49.944;8.454;2023-11-21T21:17:38;8.00;99.90
5972;DHT22;3012;49.944;8.454;2023-11-21T21:20:08;8.20;99.90
5972;DHT22;3012;49.944;8.454;2023-11-21T21:22:37;8.10;99.90
5972;DHT22;3012;49.944;8.454;2023-11-21T21:25:06;8.30;99.90
5972;DHT22;3012;49.944;8.454;2023-11-21T21:27:35;8.20;99.90
5972;DHT22;3012;49.944;8.454;2023-11-21T21:30:06;8.80;99.90
5972;DHT22;3012;49.944;8.454;2023-11-21T21:32:36;8.10;99.90
5972;DHT22;3012;49.944;8.454;2023-11-21T21:35:05;7.50;99.90
5972;DHT22;3012;49.944;8.454;2023-11-21T21:37:33;8.10;99.90
5972;DHT22;3012;49.944;8.454;2023-11-21T21:40:01;8.10;99.90
5972;DHT22;3012;49.944;8.454;2023-11-21T21:42:29;8.00;99.90
5972;DHT22;3012;49.944;8.454;2023-11-21T21:44:57;8.70;99.90
5972;DHT22;3012;49.944;8.454;2023-11-21T21:47:27;8.10;99.90
5972;DHT22;3012;49.944;8.454;2023-11-21T21:49:55;8.50;99.90
5972;DHT22;3012;49.944;8.454;2023-11-21T21:52:35;8.30;99.90
5972;DHT22;3012;49.944;8.454;2023-11-21T21:55:05;8.00;99.90
5972;DHT22;3012;49.944;8.454;2023-11-21T21:57:33;8.20;99.90
5972;DHT22;3012;49.944;8.454;2023-11-21T22:00:01;7.40;99.90
5972;DHT22;3012;49.944;8.454;2023-11-21T22:02:34;8.00;99.90
5972;DHT22;3012;49.944;8.454;2023-11-21T22:05:03;8.60;99.90
5972;DHT22;3012;49.944;8.454;2023-11-21T22:07:31;7.80;99.90
5972;DHT22;3012;49.944;8.454;2023-11-21T22:09:59;8.00;99.90
5972;DHT22;3012;49.944;8.454;2023-11-21T22:12:27;7.30;99.90
5972;DHT22;3012;49.944;8.454;2023-11-21T22:14:55;7.30;99.90
5972;DHT22;3012;49.944;8.454;2023-11-21T22:17:23;7.90;99.90
5972;DHT22;3012;49.944;8.454;2023-11-21T22:19:53;7.20;99.90
5972;DHT22;3012;49.944;8.454;2023-11-21T22:22:21;8.20;99.90
5972;DHT22;3012;49.944;8.454;2023-11-21T22:24:50;8.30;99.90
5972;DHT22;3012;49.944;8.454;2023-11-21T22:27:18;7.70;99.90
5972;DHT22;3012;49.944;8.454;2023-11-21T22:29:46;7.80;99.90
5972;DHT22;3012;49.944;8.454;2023-11-21T22:32:14;7.20;99.90
5972;DHT22;3012;49.944;8.454;2023-11-21T22:34:43;7.10;99.90
5972;DHT22;3012;49.944;8.454;2023-11-21T22:37:12;7.70;99.90
5972;DHT22;3012;49.944;8.454;2023-11-21T22:39:41;7.10;99.90
5972;DHT22;3012;49.944;8.454;2023-11-21T22:42:09;7.60;99.90
5972;DHT22;3012;49.944;8.454;2023-11-21T22:44:37;7.70;99.90
5972;DHT22;3012;49.944;8.454;2023-11-21T22:47:08;7.40;99.90
5972;DHT22;3012;49.944;8.454;2023-11-21T22:49:36;7.30;99.90
5972;DHT22;3012;49.944;8.454;2023-11-21T22:52:05;7.10;99.90
5972;DHT22;3012;49.944;8.454;2023-11-21T22:54:35;7.10;99.90
5972;DHT22;3012;49.944;8.454;2023-11-21T22:57:04;6.70;99.90
5972;DHT22;3012;49.944;8.454;2023-11-21T22:59:32;7.50;99.90
5972;DHT22;3012;49.944;8.454;2023-11-21T23:02:00;7.50;99.90
5972;DHT22;3012;49.944;8.454;2023-11-21T23:04:29;7.20;99.90
5972;DHT22;3012;49.944;8.454;2023-11-21T23:06:57;6.90;99.90
5972;DHT22;3012;49.944;8.454;2023-11-21T23:09:25;6.90;99.90
5972;DHT22;3012;49.944;8.454;2023-11-21T23:11:55;7.30;99.90
5972;DHT22;3012;49.944;8.454;2023-11-21T23:14:24;7.30;99.90
5972;DHT22;3012;49.944;8.454;2023-11-21T23:16:54;7.10;99.90
5972;DHT22;3012;49.944;8.454;2023-11-21T23:19:24;7.30;99.90
5972;DHT22;3012;49.944;8.454;2023-11-21T23:21:53;7.10;99.90
5972;DHT22;3012;49.944;8.454;2023-11-21T23:24:21;7.40;99.90
5972;DHT22;3012;49.944;8.454;2023-11-21T23:26:50;7.20;99.90
5972;DHT22;3012;49.944;8.454;2023-11-21T23:29:19;7.30;99.90
5972;DHT22;3012;49.944;8.454;2023-11-21T23:31:49;6.70;99.90
5972;DHT22;3012;49.944;8.454;2023-11-21T23:34:17;7.20;99.90
5972;DHT22;3012;49.944;8.454;2023-11-21T23:36:45;7.30;99.90
5972;DHT22;3012;49.944;8.454;2023-11-21T23:39:13;7.20;99.90
5972;DHT22;3012;49.944;8.454;2023-11-21T23:41:43;6.70;99.90
5972;DHT22;3012;49.944;8.454;2023-11-21T23:44:11;7.10;99.90
5972;DHT22;3012;49.944;8.454;2023-11-21T23:46:41;6.60;99.90
5972;DHT22;3012;49.944;8.454;2023-11-21T23:49:09;7.20;99.90
5972;DHT22;3012;49.944;8.454;2023-11-21T23:51:37;7.60;99.90
5972;DHT22;3012;49.944;8.454;2023-11-21T23:54:06;7.20;99.90
5972;DHT22;3012;49.944;8.454;2023-11-21T23:56:34;6.90;99.90
5972;DHT22;3012;49.944;8.454;2023-11-21T23:59:02;7.10;99.90
